Time;durP1;ratioP1;P1;durP2;ratioP2;P2;SDS_P1;SDS_P2;PMS_P1;PMS_P2;Temp;Humidity;BMP_temperature;BMP_pressure;BME280_temperature;BME280_humidity;BME280_pressure;Samples;Min_cycle;Max_cycle;Signal;HPM_P1;HPM_P2
2022/12/12 00:01:25;;;;;;;3.80;1.77;;;22.60;45.80;;;20.88;52.43;95032.47;4954751;28;20030;-61
2022/12/12 00:03:51;;;;;;;3.28;1.60;;;22.60;45.80;;;20.88;52.16;95043.16;4983514;28;20026;-61
2022/12/12 00:06:17;;;;;;;5.28;1.80;;;22.60;45.80;;;20.88;51.90;95043.16;4991687;28;20061;-61
2022/12/12 00:08:43;;;;;;;4.85;1.80;;;22.60;45.90;;;20.87;52.24;95042.34;4991767;28;20030;-61
2022/12/12 00:11:09;;;;;;;3.38;2.00;;;22.60;45.90;;;20.89;52.61;95034.06;4990024;28;20034;-61
2022/12/12 00:13:35;;;;;;;5.57;1.63;;;22.60;45.90;;;20.88;51.99;95043.97;4991341;28;20035;-61
2022/12/12 00:16:07;;;;;;;6.72;2.15;;;22.60;45.90;;;20.89;52.23;95050.09;4989904;28;20058;-61
2022/12/12 00:18:33;;;;;;;5.25;1.88;;;22.60;45.90;;;20.90;52.42;95046.34;4990293;28;20026;-61
2022/12/12 00:20:59;;;;;;;3.95;1.63;;;22.60;46.00;;;20.88;52.44;95043.16;4989951;28;20122;-61
2022/12/12 00:23:24;;;;;;;4.93;1.85;;;22.60;46.00;;;20.89;52.56;95036.72;4974008;28;20066;-61
2022/12/12 00:26:05;;;;;;;4.90;1.58;;;22.60;46.00;;;20.90;52.55;95046.34;4957372;28;20130;-61
2022/12/12 00:28:31;;;;;;;3.17;1.58;;;22.60;46.00;;;20.89;52.23;95047.44;4975437;28;20114;-61
2022/12/12 00:30:57;;;;;;;5.05;1.75;;;22.60;46.00;;;20.88;52.57;95051.19;4991194;28;20442;-61
2022/12/12 00:33:22;;;;;;;5.88;1.90;;;22.60;46.10;;;20.90;52.32;95054.38;4989668;28;20402;-61
2022/12/12 00:35:50;;;;;;;5.47;1.98;;;22.60;46.10;;;20.88;52.58;95048.50;4982818;28;20043;-61
2022/12/12 00:38:17;;;;;;;4.13;1.80;;;22.60;46.10;;;20.90;52.23;95057.03;4989768;28;20147;-61
2022/12/12 00:40:43;;;;;;;5.72;1.98;;;22.60;46.10;;;20.88;52.92;95051.19;4973592;28;20088;-61
2022/12/12 00:43:09;;;;;;;3.70;1.67;;;22.60;46.10;;;20.89;52.77;95063.47;4989537;28;20497;-61
2022/12/12 00:45:36;;;;;;;4.38;1.63;;;22.60;46.20;;;20.89;53.02;95063.47;4991093;28;20045;-61
2022/12/12 00:48:02;;;;;;;5.97;1.80;;;22.50;46.20;;;20.87;52.77;95057.59;4973151;28;20041;-61
2022/12/12 00:50:28;;;;;;;4.43;1.67;;;22.50;46.20;;;20.90;52.47;95065.06;4989482;28;20034;-61
2022/12/12 00:52:55;;;;;;;5.05;1.63;;;22.60;46.20;;;20.90;53.19;95060.50;4989514;28;20092;-61
2022/12/12 00:55:23;;;;;;;6.70;1.67;;;22.60;46.10;;;20.88;52.78;95059.19;4989440;28;20111;-61
2022/12/12 00:57:48;;;;;;;4.50;1.70;;;22.60;46.20;;;20.88;52.86;95061.88;4961711;28;20031;-61
2022/12/12 01:00:15;;;;;;;2.22;1.35;;;22.60;46.20;;;20.87;52.86;95055.72;4953576;28;20117;-61
2022/12/12 01:02:41;;;;;;;2.55;1.42;;;22.60;46.20;;;20.89;52.86;95060.78;4956433;28;20061;-61
2022/12/12 01:05:07;;;;;;;6.15;1.60;;;22.60;46.20;;;20.89;52.66;95063.47;4990384;28;20034;-61
2022/12/12 01:07:33;;;;;;;3.42;1.77;;;22.60;46.20;;;20.89;53.04;95060.78;4990941;28;20027;-62
2022/12/12 01:09:58;;;;;;;4.72;1.50;;;22.60;46.20;;;20.89;52.87;95068.81;4989910;28;20545;-61
2022/12/12 01:12:26;;;;;;;2.05;1.40;;;22.60;46.30;;;20.89;52.91;95066.13;4990340;28;20035;-61
2022/12/12 01:14:52;;;;;;;2.70;1.40;;;22.60;46.30;;;20.88;53.07;95064.53;4990649;28;20038;-61
2022/12/12 01:17:18;;;;;;;2.72;1.30;;;22.60;46.30;;;20.90;52.79;95068.53;4989308;28;20042;-61
2022/12/12 01:19:43;;;;;;;3.58;1.55;;;22.60;46.40;;;20.88;53.02;95065.34;4989960;28;20035;-61
2022/12/12 01:22:09;;;;;;;3.30;1.73;;;22.60;46.40;;;20.90;52.99;95067.72;4990315;28;20030;-61
2022/12/12 01:24:35;;;;;;;2.40;1.48;;;22.60;46.30;;;20.90;53.17;95063.19;4990594;28;20053;-61
2022/12/12 01:27:01;;;;;;;4.00;1.40;;;22.60;46.40;;;20.90;53.11;95070.41;4973187;28;20470;-62
2022/12/12 01:29:27;;;;;;;3.75;1.70;;;22.60;46.40;;;20.88;53.07;95053.84;4988893;28;20501;-61
2022/12/12 01:31:52;;;;;;;4.05;1.65;;;22.60;46.40;;;20.91;52.88;95070.13;4992732;28;20038;-61
2022/12/12 01:34:18;;;;;;;3.35;1.40;;;22.60;46.40;;;20.89;53.22;95063.47;4992852;28;20058;-61
2022/12/12 01:36:44;;;;;;;5.90;1.60;;;22.60;46.40;;;20.89;53.08;95066.13;4994645;28;20409;-61
2022/12/12 01:39:09;;;;;;;6.15;1.80;;;22.60;46.40;;;20.88;53.15;95056.53;4994302;28;20528;-61
2022/12/12 01:41:35;;;;;;;5.88;1.88;;;22.60;46.40;;;20.91;53.38;95072.00;4992997;28;20043;-61
2022/12/12 01:44:03;;;;;;;3.33;1.50;;;22.60;46.50;;;20.91;53.15;95063.97;4984358;28;20050;-62
2022/12/12 01:46:40;;;;;;;3.95;1.80;;;22.60;46.50;;;20.91;53.22;95074.66;4957340;28;20407;-61
2022/12/12 01:49:22;;;;;;;4.57;1.58;;;22.60;46.50;;;20.91;53.57;95066.66;4972606;28;20539;-61
2022/12/12 01:51:50;;;;;;;2.45;1.38;;;22.60;46.50;;;20.89;53.13;95071.47;4957180;28;20031;-60
2022/12/12 01:54:29;;;;;;;3.92;1.65;;;22.60;46.50;;;20.89;53.30;95068.81;4956778;28;20031;-61
2022/12/12 01:56:56;;;;;;;4.68;1.70;;;22.60;46.50;;;20.90;53.33;95073.06;4972814;28;20035;-61
2022/12/12 01:59:22;;;;;;;4.90;1.50;;;22.60;46.50;;;20.90;53.18;95073.06;4972236;28;20042;-62
2022/12/12 02:01:49;;;;;;;4.80;1.73;;;22.60;46.50;;;20.90;53.34;95075.75;4956323;28;20035;-61
2022/12/12 02:04:15;;;;;;;6.03;1.30;;;22.60;46.50;;;20.90;53.45;95079.22;4967622;28;20141;-61
2022/12/12 02:06:40;;;;;;;6.07;2.00;;;22.60;46.60;;;20.90;53.43;95079.22;4991114;28;20023;-61
2022/12/12 02:09:11;;;;;;;2.65;1.30;;;22.60;46.60;;;20.88;53.64;95085.94;4975494;28;20038;-61
2022/12/12 02:11:48;;;;;;;4.40;1.60;;;22.60;46.70;;;20.90;54.19;95075.75;4976063;28;20113;-61
2022/12/12 02:14:21;;;;;;;7.80;2.25;;;22.60;46.70;;;20.90;54.16;95078.41;4992566;28;20041;-61
2022/12/12 02:17:06;;;;;;;5.15;1.60;;;22.60;46.60;;;20.89;53.52;95079.50;4976654;28;20038;-61
2022/12/12 02:20:09;;;;;;;7.20;1.70;;;22.60;46.60;;;20.90;54.07;95081.91;4977189;28;20046;-61
2022/12/12 02:23:05;;;;;;;2.72;1.45;;;22.60;46.70;;;20.91;53.74;95096.06;4991461;28;20135;-61
2022/12/12 02:25:56;;;;;;;6.55;1.80;;;22.60;46.70;;;20.89;53.67;95095.53;4992077;28;20093;-61
2022/12/12 02:29:03;;;;;;;5.57;1.70;;;22.50;46.80;;;20.89;53.50;95098.22;4992773;28;20034;-61
2022/12/12 02:32:12;;;;;;;6.65;1.67;;;22.60;46.80;;;20.88;54.18;95091.28;4977435;28;20041;-61
2022/12/12 02:34:49;;;;;;;3.38;1.27;;;22.60;46.70;;;20.86;53.48;95088.09;4966611;28;20096;-61
2022/12/12 02:37:47;;;;;;;5.70;1.83;;;22.50;46.80;;;20.86;53.58;95091.56;4992549;28;20049;-61
2022/12/12 02:40:51;;;;;;;4.38;1.58;;;22.60;46.80;;;20.86;53.90;95099.56;4958247;28;20031;-61
2022/12/12 02:43:36;;;;;;;4.28;1.52;;;22.60;46.70;;;20.86;53.83;95098.78;4975254;28;20034;-61
2022/12/12 02:46:10;;;;;;;4.72;1.65;;;22.60;46.80;;;20.84;53.72;95099.06;4980390;28;20046;-62
2022/12/12 02:49:07;;;;;;;5.10;1.85;;;22.50;46.80;;;20.86;53.96;95104.13;4960443;28;20030;-61
2022/12/12 02:51:33;;;;;;;4.57;1.50;;;22.50;46.90;;;20.85;54.00;95099.84;4991172;28;20026;-61
2022/12/12 02:53:59;;;;;;;3.03;1.30;;;22.60;46.80;;;20.85;53.87;95097.19;4991790;28;20434;-61
2022/12/12 02:56:46;;;;;;;3.47;1.60;;;22.60;46.90;;;20.87;53.97;95095.03;4970311;28;20059;-61
2022/12/12 02:59:29;;;;;;;5.60;2.05;;;22.60;46.90;;;20.88;53.94;95096.63;4972728;28;20162;-61
2022/12/12 03:02:30;;;;;;;5.03;1.70;;;22.60;46.90;;;20.88;54.38;95101.97;4954947;28;20647;-61
2022/12/12 03:08:30;;;;;;;5.30;1.38;;;22.60;46.90;;;20.87;54.38;95095.03;4957978;28;20064;-61
2022/12/12 03:11:09;;;;;;;3.17;1.27;;;22.50;47.10;;;20.88;53.82;95100.09;4940193;28;20054;-61
2022/12/12 03:14:18;;;;;;;3.28;1.13;;;22.50;47.20;;;20.93;54.36;95101.91;4939737;28;20031;-61
2022/12/12 03:16:54;;;;;;;4.50;1.45;;;22.50;47.20;;;20.94;54.01;95101.63;4954954;28;20045;-61
2022/12/12 03:19:59;;;;;;;2.67;1.30;;;22.50;47.20;;;20.98;54.02;95096.53;4940416;28;20059;-61
2022/12/12 03:22:49;;;;;;;3.50;1.40;;;22.50;47.20;;;21.02;54.04;95105.59;4929508;28;20035;-61
2022/12/12 03:25:24;;;;;;;2.38;1.35;;;22.60;47.10;;;21.03;53.89;95099.16;4955728;28;20066;-61
2022/12/12 03:27:59;;;;;;;4.18;1.50;;;22.60;47.10;;;21.07;53.57;95102.91;4939967;28;20110;-61
2022/12/12 03:30:25;;;;;;;3.45;1.40;;;22.60;47.10;;;21.08;53.72;95105.28;4972203;28;20035;-61
2022/12/12 03:33:20;;;;;;;7.03;1.50;;;22.60;47.00;;;21.13;53.97;95109.00;4960140;28;20065;-61
2022/12/12 03:35:51;;;;;;;3.90;1.40;;;22.60;47.00;;;21.13;53.46;95107.13;4953106;28;20121;-61
2022/12/12 03:38:20;;;;;;;4.05;1.38;;;22.60;47.10;;;21.15;53.55;95113.00;4958803;28;20028;-61
2022/12/12 03:40:54;;;;;;;4.00;1.50;;;22.60;47.00;;;21.16;53.83;95117.25;4990033;28;20026;-63
2022/12/12 03:43:25;;;;;;;3.45;1.23;;;22.70;47.00;;;21.16;53.75;95109.22;4974780;28;20645;-61
2022/12/12 03:46:08;;;;;;;;;;;22.70;47.10;;;21.15;54.38;95113.00;4974179;28;20117;-61
2022/12/12 03:48:38;;;;;;;7.72;1.20;;;22.70;47.20;;;21.14;54.80;95111.41;4991880;28;19965;-61
2022/12/12 03:51:25;;;;;;;4.03;1.30;;;22.60;47.60;;;21.15;54.40;95118.34;4958331;28;20137;-61
2022/12/12 03:54:08;;;;;;;3.53;1.40;;;22.70;47.60;;;21.15;54.46;95115.66;4945419;28;20406;-61
2022/12/12 03:56:48;;;;;;;5.70;1.10;;;22.70;47.70;;;21.15;55.08;95117.53;4968280;28;20039;-61
2022/12/12 03:59:21;;;;;;;4.05;1.48;;;22.70;47.90;;;21.12;55.29;95113.56;4954443;28;20039;-61
2022/12/12 04:02:03;;;;;;;3.90;1.30;;;22.70;47.90;;;21.14;54.92;95116.75;4969481;28;20180;-61
2022/12/12 04:04:35;;;;;;;3.60;1.33;;;22.70;47.90;;;21.16;55.22;95113.78;4971352;28;20049;-62
2022/12/12 04:07:15;;;;;;;3.45;1.35;;;22.80;47.70;;;21.18;54.82;95122.31;4989661;28;20037;-62
2022/12/12 04:12:57;;;;;;;3.88;1.30;;;22.80;48.10;;;21.17;55.72;95118.06;4968677;28;20037;-61
2022/12/12 04:18:06;;;;;;;2.58;1.23;;;22.80;48.40;;;21.18;55.72;95117.78;4992748;28;20057;-61
2022/12/12 04:23:55;;;;;;;5.90;1.50;;;22.80;48.30;;;21.19;56.84;95124.72;5012112;28;20092;-60
2022/12/12 04:26:39;;;;;;;4.75;1.58;;;22.90;49.80;;;21.20;57.29;95126.31;4973936;28;20022;-61
2022/12/12 04:29:19;;;;;;;9.00;1.90;;;22.80;49.20;;;21.21;59.10;95135.13;4990412;28;20039;-61
2022/12/12 04:31:58;;;;;;;12.05;2.03;;;22.80;50.40;;;21.23;62.13;95138.31;4973195;28;20398;-61
2022/12/12 04:34:36;;;;;;;19.45;4.60;;;22.90;53.30;;;21.24;61.30;95138.06;5006093;28;20041;-61
2022/12/12 04:37:02;;;;;;;15.90;3.60;;;23.00;53.20;;;21.27;61.13;95132.16;4989969;28;20038;-61
2022/12/12 04:39:28;;;;;;;48.28;8.35;;;23.00;53.10;;;21.30;65.28;95136.97;4973536;28;20030;-61
2022/12/12 04:41:54;;;;;;;77.10;9.55;;;23.00;63.70;;;21.35;72.39;95128.91;4989578;28;20035;-61
2022/12/12 04:44:20;;;;;;;50.65;8.32;;;23.10;65.20;;;21.43;75.02;95124.81;4990293;28;20030;-60
2022/12/12 04:46:47;;;;;;;34.83;5.53;;;23.10;65.10;;;21.46;73.06;95126.13;4989830;28;20401;-61
2022/12/12 04:49:19;;;;;;;33.65;4.45;;;23.10;59.40;;;21.48;71.04;95132.00;4974018;28;20064;-61
2022/12/12 04:51:47;;;;;;;31.20;4.82;;;23.10;58.40;;;21.48;69.44;95126.66;4983402;28;20526;-61
2022/12/12 04:54:41;;;;;;;18.08;3.47;;;23.10;56.50;;;21.49;68.79;95133.59;4942669;28;20038;-61
2022/12/12 04:57:09;;;;;;;27.17;4.15;;;23.10;56.70;;;21.46;68.05;95129.59;4940389;28;20480;-60
2022/12/12 04:59:35;;;;;;;25.85;4.40;;;23.10;56.10;;;21.47;67.53;95146.47;4940290;28;20041;-61
2022/12/12 05:02:15;;;;;;;15.60;3.63;;;23.20;56.10;;;21.45;67.15;95138.72;4954002;28;20030;-60
2022/12/12 05:05:06;;;;;;;16.58;3.60;;;23.10;55.30;;;21.45;67.47;95143.25;4984068;28;20037;-60
2022/12/12 05:07:40;;;;;;;15.40;3.20;;;23.10;55.80;;;21.43;66.27;95143.56;4978629;28;20034;-61
2022/12/12 05:10:16;;;;;;;16.08;4.00;;;23.10;54.50;;;21.42;64.85;95143.84;4992911;28;20121;-61
2022/12/12 05:12:46;;;;;;;13.95;2.95;;;23.10;54.90;;;21.42;63.78;95143.84;5009640;28;20065;-60
2022/12/12 05:15:13;;;;;;;11.18;2.75;;;23.10;53.60;;;21.40;63.08;95144.13;4993528;28;20107;-60
2022/12/12 05:17:45;;;;;;;14.10;3.10;;;23.10;53.70;;;21.40;64.28;95147.59;5009564;28;20135;-61
2022/12/12 05:20:13;;;;;;;16.80;3.45;;;23.10;53.70;;;21.39;62.81;95146.00;4960948;28;20054;-60
2022/12/12 05:22:38;;;;;;;9.38;2.65;;;23.10;52.90;;;21.38;62.40;95147.06;4993135;28;20088;-60
2022/12/12 05:25:05;;;;;;;15.50;3.63;;;23.10;53.10;;;21.38;62.25;95149.75;5009900;28;20034;-61
2022/12/12 05:27:31;;;;;;;15.48;2.92;;;23.00;52.30;;;21.37;61.95;95153.50;5009658;28;20026;-60
2022/12/12 05:29:56;;;;;;;9.98;2.63;;;23.10;52.40;;;21.36;62.17;95157.25;5008950;28;20138;-61
2022/12/12 05:32:22;;;;;;;11.45;2.72;;;23.00;52.10;;;21.36;62.05;95156.47;5009677;28;20044;-61
2022/12/12 05:34:48;;;;;;;15.95;2.55;;;23.00;52.30;;;21.34;62.11;95154.06;5010710;28;20038;-61
2022/12/12 05:37:13;;;;;;;17.35;3.20;;;23.00;52.40;;;21.34;61.73;95159.41;5009609;28;20092;-61
2022/12/12 05:39:39;;;;;;;12.05;3.35;;;23.00;52.20;;;21.33;61.74;95163.16;4992833;28;20172;-61
2022/12/12 05:42:05;;;;;;;8.90;2.92;;;23.00;52.00;;;21.32;61.72;95156.22;5009172;28;20120;-61
2022/12/12 05:44:31;;;;;;;12.23;2.60;;;23.00;51.80;;;21.29;61.57;95159.47;5009617;28;20088;-61
2022/12/12 05:46:56;;;;;;;13.63;3.10;;;23.00;51.60;;;21.29;61.71;95162.13;4993024;28;20041;-61
2022/12/12 05:49:22;;;;;;;9.40;2.58;;;23.00;51.80;;;21.28;61.71;95168.56;5009423;28;20050;-60
2022/12/12 05:51:48;;;;;;;12.40;2.42;;;23.00;51.30;;;21.29;61.05;95166.69;4973349;28;20101;-61
2022/12/12 05:54:14;;;;;;;7.88;2.17;;;23.00;51.30;;;21.27;60.94;95166.94;4990876;28;20058;-61
2022/12/12 05:56:39;;;;;;;10.73;2.60;;;23.00;51.10;;;21.26;60.70;95170.69;4973575;28;20050;-60
2022/12/12 05:59:05;;;;;;;7.20;2.35;;;23.00;51.00;;;21.25;61.10;95177.13;4957773;28;20034;-60
2022/12/12 06:01:31;;;;;;;7.55;2.00;;;22.90;50.90;;;21.25;60.88;95173.66;4990842;28;20461;-60
2022/12/12 06:03:57;;;;;;;9.45;2.85;;;22.90;50.90;;;21.24;61.02;95177.41;4941009;28;20101;-60
2022/12/12 06:06:22;;;;;;;6.97;2.30;;;22.90;50.90;;;21.24;60.42;95180.06;4973598;28;20050;-60
2022/12/12 06:08:48;;;;;;;8.43;2.55;;;22.90;50.80;;;21.21;60.23;95176.03;4941416;28;20041;-60
2022/12/12 06:11:14;;;;;;;7.35;2.58;;;22.90;50.70;;;21.20;60.62;95179.81;4973535;28;20077;-61
2022/12/12 06:13:39;;;;;;;6.35;2.28;;;22.90;50.60;;;21.21;60.37;95181.41;4957461;28;20070;-61
2022/12/12 06:16:11;;;;;;;5.45;2.28;;;22.90;50.70;;;21.19;60.06;95167.50;4973677;28;20038;-60
2022/12/12 06:18:37;;;;;;;10.43;2.80;;;22.80;50.60;;;21.18;60.20;95175.81;4961082;28;20034;-61
2022/12/12 06:21:07;;;;;;;11.77;2.35;;;22.90;50.50;;;21.17;60.47;95175.00;4944982;28;20572;-60
2022/12/12 06:23:36;;;;;;;;;;;22.90;50.60;;;21.15;59.74;95179.84;4961879;28;20066;-60
2022/12/12 06:26:03;;;;;;;8.98;2.63;;;22.90;50.50;;;21.13;60.01;95175.84;4960317;28;19921;-60
2022/12/12 06:28:28;;;;;;;6.50;2.15;;;22.90;50.40;;;21.12;59.83;95183.06;4945305;28;20023;-60
2022/12/12 06:30:54;;;;;;;7.82;2.45;;;22.80;50.40;;;21.12;60.20;95183.06;4960580;28;20104;-61
2022/12/12 06:33:20;;;;;;;8.40;2.33;;;22.80;50.30;;;21.13;59.67;95184.66;4960696;28;20093;-61
2022/12/12 06:35:59;;;;;;;6.35;2.00;;;22.80;50.20;;;21.14;60.35;95185.47;4928104;28;20113;-62
2022/12/12 06:38:25;;;;;;;7.45;2.10;;;22.80;50.20;;;21.11;59.88;95186.81;4976558;28;20029;-61
2022/12/12 06:40:51;;;;;;;5.55;1.80;;;22.80;50.10;;;21.11;60.05;95186.81;4944011;28;20406;-61
2022/12/12 06:43:17;;;;;;;4.93;2.08;;;22.80;50.10;;;21.11;59.75;95197.53;4960417;28;20050;-60
2022/12/12 06:45:42;;;;;;;7.70;1.92;;;22.80;50.10;;;21.10;59.37;95195.94;4944065;28;20033;-60
2022/12/12 06:48:08;;;;;;;3.72;1.80;;;22.80;50.10;;;21.10;59.86;95193.25;4943982;28;20050;-60
2022/12/12 06:50:38;;;;;;;6.82;2.17;;;22.80;50.00;;;21.10;59.71;95186.03;4975782;28;20086;-61
2022/12/12 06:53:04;;;;;;;8.23;2.30;;;22.80;50.10;;;21.10;59.28;95195.94;4992486;28;20417;-61
2022/12/12 06:55:29;;;;;;;6.18;2.15;;;22.80;50.10;;;21.09;59.69;95199.69;4959856;28;20276;-61
2022/12/12 06:57:55;;;;;;;7.20;2.00;;;22.80;50.10;;;21.09;59.24;95211.16;4975891;28;20062;-60
2022/12/12 07:00:21;;;;;;;4.80;1.95;;;22.80;50.00;;;21.08;59.31;95208.78;4943973;28;20497;-60
2022/12/12 07:02:47;;;;;;;6.15;2.25;;;22.80;49.90;;;21.08;59.50;95208.78;4959863;28;20440;-60
2022/12/12 07:05:12;;;;;;;6.03;1.80;;;22.80;49.90;;;21.08;59.43;95209.56;4959809;28;20437;-61
2022/12/12 07:07:38;;;;;;;4.40;1.92;;;22.80;49.90;;;21.07;59.24;95213.31;4991905;28;20422;-60
2022/12/12 07:10:04;;;;;;;4.45;2.05;;;22.80;49.80;;;21.06;59.20;95222.44;4975147;28;20524;-60
2022/12/12 07:12:30;;;;;;;6.70;2.35;;;22.80;49.80;;;21.07;59.04;95212.53;4975990;28;20032;-61
2022/12/12 07:14:56;;;;;;;6.47;1.88;;;22.80;49.80;;;21.06;58.99;95216.28;4959794;28;20034;-60
2022/12/12 07:17:21;;;;;;;5.15;1.75;;;22.80;49.80;;;21.06;59.23;95219.75;4975654;28;20073;-61
2022/12/12 07:19:47;;;;;;;5.03;2.08;;;22.80;49.70;;;21.06;59.19;95216.28;4974761;28;20035;-61
2022/12/12 07:22:13;;;;;;;5.88;2.22;;;22.80;49.70;;;21.05;59.07;95225.38;4975681;28;20030;-61
2022/12/12 07:24:39;;;;;;;5.55;1.90;;;22.70;49.70;;;21.05;59.16;95218.16;4975559;28;20050;-60
2022/12/12 07:27:05;;;;;;;5.55;2.28;;;22.80;49.70;;;21.04;58.75;95223.75;4975700;28;20046;-60
2022/12/12 07:29:31;;;;;;;6.38;2.15;;;22.80;49.60;;;21.04;59.10;95224.53;4958651;28;20080;-61
2022/12/12 07:31:56;;;;;;;3.60;1.67;;;22.70;49.70;;;21.04;59.27;95221.88;4958828;28;20138;-60
2022/12/12 07:34:22;;;;;;;4.95;1.83;;;22.80;49.60;;;21.05;58.85;95226.19;4927653;28;20034;-61
2022/12/12 07:36:48;;;;;;;7.65;1.92;;;22.80;49.50;;;21.04;58.90;95224.53;4959345;28;20034;-60
2022/12/12 07:39:14;;;;;;;4.40;2.15;;;22.80;49.50;;;21.04;58.37;95223.75;4975254;28;20042;-61
2022/12/12 07:41:40;;;;;;;7.53;2.38;;;22.80;49.50;;;21.05;58.70;95220.03;4974972;28;20045;-61
2022/12/12 07:44:05;;;;;;;4.43;1.95;;;22.80;49.40;;;21.05;58.27;95225.38;4974931;28;20125;-61
2022/12/12 07:46:31;;;;;;;3.33;1.77;;;22.80;49.40;;;21.06;58.81;95224.28;4959122;28;20030;-61
2022/12/12 07:48:57;;;;;;;4.78;1.98;;;22.70;49.30;;;21.08;58.40;95230.16;4942924;28;20126;-61
2022/12/12 07:51:23;;;;;;;5.90;2.00;;;22.80;49.40;;;21.07;58.03;95239.28;4958579;28;20126;-61
2022/12/12 07:53:49;;;;;;;4.25;1.85;;;22.70;49.40;;;21.06;57.94;95238.47;4942212;28;20117;-61
2022/12/12 07:56:15;;;;;;;5.10;1.60;;;22.70;49.30;;;21.09;57.91;95231.75;4958935;28;20026;-60
2022/12/12 07:58:41;;;;;;;7.57;1.73;;;22.80;49.30;;;21.09;58.47;95242.47;4958705;28;20126;-60
2022/12/12 08:01:18;;;;;;;4.60;1.60;;;22.80;49.30;;;21.09;58.14;95237.91;4942589;28;20030;-61
2022/12/12 08:03:44;;;;;;;4.05;1.90;;;22.80;49.20;;;21.08;57.95;95246.22;4959699;28;20038;-61
2022/12/12 08:06:10;;;;;;;4.15;1.60;;;22.80;49.20;;;21.12;57.65;95251.81;4958597;28;20053;-61
2022/12/12 08:08:36;;;;;;;4.72;2.30;;;22.80;49.20;;;21.12;57.84;95259.81;4942594;28;20387;-61
2022/12/12 08:11:07;;;;;;;4.20;1.58;;;22.80;49.20;;;21.13;58.15;95264.91;4958468;28;20039;-60
2022/12/12 08:13:35;;;;;;;5.95;1.67;;;22.80;49.30;;;21.13;58.40;95254.19;4958747;28;20117;-61
2022/12/12 08:16:01;;;;;;;3.28;1.67;;;22.70;49.20;;;21.12;57.98;95257.94;4974053;28;20034;-61
2022/12/12 08:18:27;;;;;;;5.28;1.92;;;22.80;49.20;;;21.13;58.01;95254.19;4958815;28;20031;-60
2022/12/12 08:20:52;;;;;;;6.82;1.90;;;22.80;49.20;;;21.13;58.29;95259.56;4974215;28;20107;-60
2022/12/12 08:23:18;;;;;;;6.35;1.75;;;22.80;49.30;;;21.13;58.34;95259.56;4958564;28;20502;-61
2022/12/12 08:25:44;;;;;;;5.25;1.83;;;22.80;49.20;;;21.11;57.90;95261.69;4974398;28;20104;-60
2022/12/12 08:28:10;;;;;;;3.95;1.80;;;22.80;49.20;;;21.13;58.08;95258.75;4958168;28;20018;-61
2022/12/12 08:30:36;;;;;;;3.67;1.70;;;22.80;49.20;;;21.15;58.36;95261.94;4991358;28;20022;-60
2022/12/12 08:33:02;;;;;;;2.92;1.45;;;22.80;49.20;;;21.15;57.96;95262.75;4942396;28;20026;-61
2022/12/12 08:35:31;;;;;;;3.90;1.83;;;22.80;49.20;;;21.16;57.60;95266.22;4958081;28;20054;-61
2022/12/12 08:37:58;;;;;;;4.82;1.80;;;22.80;49.20;;;21.17;57.97;95265.16;4957842;28;20406;-60
2022/12/12 08:40:23;;;;;;;4.03;1.73;;;22.80;49.20;;;21.18;57.51;95272.09;4942279;28;20030;-60
2022/12/12 08:42:49;;;;;;;4.40;1.63;;;22.80;49.10;;;21.20;57.57;95276.09;4974086;28;20030;-60
2022/12/12 08:45:15;;;;;;;3.15;1.50;;;22.80;49.00;;;21.20;57.30;95276.09;4958384;28;20026;-61
2022/12/12 08:47:41;;;;;;;2.72;1.35;;;22.90;49.00;;;21.21;57.64;95277.69;4975280;28;20037;-61
2022/12/12 08:50:07;;;;;;;6.95;1.73;;;22.90;49.00;;;21.23;57.70;95275.53;4941224;28;20555;-61
2022/12/12 08:52:33;;;;;;;3.45;1.55;;;22.80;49.10;;;21.24;57.43;95279.84;4958019;28;20070;-61
2022/12/12 08:54:59;;;;;;;3.38;1.75;;;22.80;49.00;;;21.24;57.44;95279.84;4957821;28;20413;-61
2022/12/12 08:57:25;;;;;;;4.40;1.73;;;22.80;49.00;;;21.24;57.57;95277.16;4941885;28;20058;-61
2022/12/12 08:59:50;;;;;;;3.70;1.50;;;22.90;49.00;;;21.26;57.03;95284.91;4925189;28;20045;-61
2022/12/12 09:02:16;;;;;;;5.07;1.70;;;22.90;49.00;;;21.25;57.50;95284.09;4957801;28;20033;-61
2022/12/12 09:04:42;;;;;;;2.40;1.55;;;22.90;48.90;;;21.26;56.99;95301.75;4941719;28;20096;-61
2022/12/12 09:07:08;;;;;;;3.20;1.40;;;22.80;49.00;;;21.27;57.91;95305.22;4973853;28;20073;-61
2022/12/12 09:09:33;;;;;;;4.18;1.65;;;22.90;49.00;;;21.27;57.36;95303.34;4973385;28;20500;-60
2022/12/12 09:11:59;;;;;;;4.15;1.90;;;22.90;48.90;;;21.28;57.49;95304.97;4957143;28;20030;-61
2022/12/12 09:14:25;;;;;;;2.83;1.30;;;22.90;48.90;;;21.29;57.28;95311.94;4957659;28;20449;-60
2022/12/12 09:16:50;;;;;;;4.78;1.38;;;22.90;49.00;;;21.27;57.68;95319.41;4941283;28;20469;-60
2022/12/12 09:19:16;;;;;;;2.75;1.40;;;22.90;48.90;;;21.29;57.09;95322.63;4941634;28;20038;-60
2022/12/12 09:21:42;;;;;;;3.42;1.50;;;22.90;48.90;;;21.30;57.54;95318.06;4957301;28;20061;-61
2022/12/12 09:24:08;;;;;;;3.65;1.85;;;22.90;48.90;;;21.32;57.81;95322.06;4957175;28;20521;-60
2022/12/12 09:26:34;;;;;;;3.28;1.35;;;22.90;48.90;;;21.33;56.77;95328.22;4973398;28;20022;-60
2022/12/12 09:28:59;;;;;;;4.25;1.73;;;22.90;49.00;;;21.34;56.78;95329.81;4957426;28;20080;-61
2022/12/12 09:31:25;;;;;;;4.20;1.80;;;22.90;49.00;;;21.36;57.44;95316.97;4973344;28;20038;-60
2022/12/12 09:33:51;;;;;;;4.05;1.70;;;22.90;49.00;;;21.35;56.99;95326.88;4972656;28;20098;-60
2022/12/12 09:36:17;;;;;;;2.78;1.30;;;22.90;49.00;;;21.36;56.91;95317.75;4925300;28;20402;-61
2022/12/12 09:38:42;;;;;;;3.88;1.30;;;22.90;49.10;;;21.38;57.44;95320.16;4941139;28;20101;-61
2022/12/12 09:41:08;;;;;;;3.63;1.38;;;22.80;49.20;;;21.39;56.97;95319.09;4957024;28;20490;-60
2022/12/12 09:43:40;;;;;;;2.95;1.45;;;22.80;49.20;;;21.38;56.88;95320.97;4990684;28;20034;-61
2022/12/12 09:46:38;;;;;;;3.22;1.60;;;22.80;49.20;;;21.40;57.21;95326.84;4957691;28;20038;-61
2022/12/12 09:49:14;;;;;;;3.95;1.60;;;22.80;49.20;;;21.39;57.28;95327.91;4974817;28;20121;-61
2022/12/12 09:51:43;;;;;;;4.38;1.58;;;22.80;49.20;;;21.39;57.42;95321.75;4990465;28;20145;-61
2022/12/12 09:54:15;;;;;;;2.60;1.48;;;22.80;49.30;;;21.40;57.19;95323.34;4945169;28;20035;-61
2022/12/12 09:57:06;;;;;;;3.35;1.55;;;22.80;49.30;;;21.39;57.03;95319.88;4946098;28;20540;-61
2022/12/12 09:59:43;;;;;;;4.72;1.30;;;22.80;49.30;;;21.40;57.20;95324.16;4979164;28;20034;-61
2022/12/12 10:02:42;;;;;;;2.65;1.30;;;22.90;49.30;;;21.44;57.07;95323.59;4976716;28;20058;-61
2022/12/12 10:05:29;;;;;;;2.78;1.50;;;22.80;49.30;;;21.42;57.14;95320.41;4977008;28;20466;-61
2022/12/12 10:08:18;;;;;;;2.30;1.20;;;22.80;49.30;;;21.42;57.43;95313.19;4976473;28;20042;-61
2022/12/12 10:10:47;;;;;;;3.15;1.50;;;22.80;49.30;;;21.41;56.82;95314.25;4945537;28;20034;-61
2022/12/12 10:13:26;;;;;;;3.97;1.40;;;22.90;49.30;;;21.44;57.03;95315.56;4945493;28;20077;-61
2022/12/12 10:16:04;;;;;;;2.17;1.30;;;22.80;49.40;;;21.43;57.02;95312.09;4961196;28;20104;-61
2022/12/12 10:18:44;;;;;;;3.47;1.20;;;22.80;49.30;;;21.44;57.50;95310.22;4961734;28;20269;-61
2022/12/12 10:21:18;;;;;;;3.78;1.58;;;22.90;49.40;;;21.45;56.99;95309.16;4974009;23;1145445;-28
2022/12/12 10:23:49;;;;;;;3.05;1.50;;;22.90;49.40;;;21.46;56.96;95308.06;5014538;28;20036;-28
2022/12/12 10:26:28;;;;;;;2.15;1.40;;;22.90;49.40;;;21.46;57.39;95300.84;5014961;28;20065;-28
2022/12/12 10:29:00;;;;;;;2.42;1.33;;;22.90;49.30;;;21.47;56.72;95312.34;5015301;28;20578;-29
2022/12/12 10:31:54;;;;;;;2.22;1.30;;;22.90;49.30;;;21.49;57.20;95312.88;4982811;28;20091;-28
2022/12/12 10:35:07;;;;;;;2.55;1.27;;;22.90;49.30;;;21.48;57.29;95312.06;5004771;28;20515;-28
2022/12/12 10:38:17;;;;;;;4.18;1.35;;;23.00;49.20;;;21.49;56.90;95311.00;5011322;28;20045;-29
2022/12/12 10:41:14;;;;;;;2.35;1.10;;;23.00;49.20;;;21.47;57.18;95315.03;5011180;28;20037;-29
2022/12/12 10:43:53;;;;;;;1.58;1.20;;;23.00;49.20;;;21.48;57.11;95309.38;5012431;28;20038;-28
2022/12/12 10:47:06;;;;;;;2.83;1.33;;;22.90;49.20;;;21.50;56.77;95317.13;4995565;28;20037;-29
2022/12/12 10:49:32;;;;;;;1.65;1.10;;;23.00;49.20;;;21.49;56.78;95315.53;5008178;28;20491;-28